WEATHER DATA

YESTERDAY
Time Temp. Dewp. Hum. Wind dir Wind speed Wind gust Bar. 1h Prec. 24h Prec.
00:17 14.2 6.8 61 304 0.3 0.8 1022.7 0.0000 0.0000
00:27 14.1 6.7 61 304 0.3 0.8 1022.8 0.0000 0.0000
00:37 13.9 6.5 61 320 0.6 0.8 1022.7 0.0000 0.0000
00:47 13.8 6.4 61 308 0.3 0.8 1022.8 0.0000 0.0000
00:57 13.6 6.2 61 305 0.3 0.8 1022.8 0.0000 0.0000
01:10 13.5 6.4 62 270 0.3 0.8 1023 0.0000 0.0000
01:13 13.4 6.3 62 270 0.3 0.8 1023 0.0000 0.0000
01:23 13.3 6.2 62 315 0.3 0.8 1022.9 0.0000 0.0000
01:33 13.2 6.1 62 311 0.3 1.1 1022.9 0.0000 0.0000
01:44 13.1 6 62 306 0.6 0.8 1022.9 0.0000 0.0000
01:53 13 5.9 62 303 0.6 0.8 1022.9 0.0000 0.0000
02:03 12.9 5.8 62 308 0.3 0.8 1022.9 0.0000 0.0000
02:13 12.8 5.7 62 308 0.6 1.1 1023 0.0000 0.0000
02:24 12.7 5.6 62 303 0.3 0.6 1023 0.0000 0.0000
02:34 12.6 5.5 62 270 0.3 0.8 1023 0.0000 0.0000
02:43 12.6 5.5 62 308 0.3 0.8 1023 0.0000 0.0000
02:54 12.4 5.3 62 270 0.3 0.8 1023 0.0000 0.0000
03:04 12.3 5.2 62 309 0.6 1.1 1023.1 0.0000 0.0000
03:14 12.1 5 62 315 0.6 1.7 1023.1 0.0000 0.0000
03:24 12 5 62 317 0.6 1.9 1023.1 0.0000 0.0000
03:34 11.9 4.9 62 327 0.8 1.9 1023.1 0.0000 0.0000
03:44 11.8 5 63 326 0.8 1.9 1023.1 0.0000 0.0000
03:54 11.6 4.8 63 315 0.6 1.7 1023.1 0.0000 0.0000
04:05 11.5 4.7 63 319 0.6 1.7 1023.2 0.0000 0.0000
04:15 11.5 4.7 63 315 0.6 1.9 1023.2 0.0000 0.0000
04:24 11.5 4.7 63 308 0.6 1.1 1023.2 0.0000 0.0000
04:34 11.5 4.7 63 308 0.3 0.8 1023.3 0.0000 0.0000
04:45 11.4 4.6 63 270 0.3 0.8 1023.3 0.0000 0.0000
04:55 11.4 4.6 63 270 0.3 0.8 1023.3 0.0000 0.0000
05:04 11.4 4.6 63 304 0.3 0.8 1023.4 0.0000 0.0000
05:15 11.3 4.5 63 270 0.3 0.8 1023.5 0.0000 0.0000
05:25 11.3 4.5 63 270 0.3 0.8 1023.6 0.0000 0.0000
05:35 11.2 4.4 63 270 0.3 0.6 1023.7 0.0000 0.0000
05:45 11.2 4.4 63 270 0.3 0.6 1023.7 0.0000 0.0000
05:55 11.2 4.4 63 270 0.3 0.6 1023.8 0.0000 0.0000
06:05 11.2 4.4 63 270 0.3 0.6 1023.9 0.0000 0.0000
06:15 11.3 4.7 64 270 0.3 0.6 1023.9 0.0000 0.0000
06:26 11.4 4.8 64 235 0.3 0.8 1024 0.0000 0.0000
06:36 11.6 5 64 225 0.3 0.8 1024.1 0.0000 0.0000
06:45 12.1 5.5 64 240 0.3 1.1 1024.2 0.0000 0.0000
06:55 13 6.6 65 270 0.3 1.1 1024.3 0.0000 0.0000
07:06 14 7.5 65 221 0.6 1.1 1024.4 0.0000 0.0000
07:16 14.8 8.3 65 135 0.3 0.6 1024.5 0.0000 0.0000
07:26 15.2 8.7 65 288 0.6 1.9 1024.6 0.0000 0.0000
07:36 15.7 9.1 65 22 0.6 1.1 1024.6 0.0000 0.0000
07:46 16 9.2 64 343 0.6 1.7 1024.7 0.0000 0.0000
07:56 16.3 9.5 64 332 0.3 1.1 1024.8 0.0000 0.0000
08:06 16.8 10 64 8 0.6 1.7 1024.8 0.0000 0.0000
08:17 17.1 10.2 64 0 0.3 1.1 1024.9 0.0000 0.0000
08:26 17.4 10.5 64 270 0.3 0.8 1025 0.0000 0.0000
08:36 18.1 11.2 64 225 0.6 1.1 1025.1 0.0000 0.0000
08:47 18.6 11.7 64 315 0.3 0.8 1025.1 0.0000 0.0000
08:57 19.3 12.3 64 3 0.6 1.1 1025.1 0.0000 0.0000
09:06 19.5 12.3 63 315 0.6 1.7 1025.1 0.0000 0.0000
09:16 20 12.7 63 270 0.6 1.9 1025.1 0.0000 0.0000
09:27 20.1 12.8 63 322 0.6 1.9 1025.2 0.0000 0.0000
09:37 20.7 13.4 63 225 0.8 2.2 1025.3 0.0000 0.0000
09:47 20.7 13.2 62 347 0.6 1.9 1025.2 0.0000 0.0000
09:57 20.8 13.3 62 299 0.6 1.9 1025.3 0.0000 0.0000
10:07 20.6 12.8 61 331 0.6 2.2 1025.3 0.0000 0.0000
10:17 20.9 13.1 61 336 0.6 2.5 1025.2 0.0000 0.0000
10:27 21.1 13.3 61 244 0.6 2.8 1025.3 0.0000 0.0000
10:38 21.1 13.3 61 317 0.8 3.6 1025.3 0.0000 0.0000
10:47 20.6 12.6 60 78 0.8 2.2 1025.3 0.0000 0.0000
10:57 21.4 13.6 61 9 0.6 2.5 1025.2 0.0000 0.0000
11:08 21.9 14 61 222 0.8 1.9 1025.2 0.0000 0.0000
11:18 22.1 14 60 342 1.1 3.3 1025.2 0.0000 0.0000
11:28 21.5 13.2 59 321 1.1 2.8 1025.2 0.0000 0.0000
11:37 21.9 13.5 59 325 0.8 2.8 1025.2 0.0000 0.0000
11:48 22 13.6 59 237 0.6 2.5 1025.2 0.0000 0.0000
11:58 22.2 13.8 59 332 0.8 2.2 1025.1 0.0000 0.0000
12:08 22.8 14.4 59 239 0.6 2.5 1025.1 0.0000 0.0000
12:18 22.6 13.9 58 331 1.7 4.2 1025.1 0.0000 0.0000
12:28 22.1 13.2 57 325 1.9 4.7 1025.2 0.0000 0.0000
12:38 22.4 13.7 58 357 0.6 2.5 1025.1 0.0000 0.0000
12:48 22.2 13.3 57 352 0.8 2.2 1025.2 0.0000 0.0000
12:59 21.8 12.6 56 355 1.7 3.1 1025.2 0.0000 0.0000
13:09 22.3 13.4 57 356 0.8 2.8 1025.1 0.0000 0.0000
13:18 22.4 13.5 57 349 0.8 2.2 1025.1 0.0000 0.0000
13:28 22.4 13.2 56 315 0.8 2.5 1025 0.0000 0.0000
13:39 21.9 12.7 56 357 0.8 2.2 1025 0.0000 0.0000
13:49 22.2 13 56 342 0.8 3.1 1025 0.0000 0.0000
13:59 21.7 12.3 55 346 1.7 3.3 1025.1 0.0000 0.0000
14:09 21.6 12.2 55 332 1.1 2.8 1025 0.0000 0.0000
14:19 21.6 12.2 55 341 1.1 3.1 1025 0.0000 0.0000
14:29 21.9 12.5 55 332 1.7 3.6 1024.9 0.0000 0.0000
14:39 22.2 12.7 55 336 0.8 2.5 1024.9 0.0000 0.0000
14:50 22.5 13 55 323 0.8 3.1 1024.9 0.0000 0.0000
14:59 22.2 12.5 54 343 0.6 2.5 1024.9 0.0000 0.0000
15:09 22 12.3 54 338 0.8 2.2 1024.9 0.0000 0.0000
15:20 21.8 12.1 54 312 0.8 2.5 1025 0.0000 0.0000
15:30 21.4 11.4 53 322 0.8 2.2 1024.9 0.0000 0.0000
15:40 21.5 11.8 54 296 0.8 2.2 1024.9 0.0000 0.0000
15:49 21.7 12 54 280 1.1 3.1 1024.8 0.0000 0.0000
16:00 21.5 11.5 53 242 0.8 1.9 1024.8 0.0000 0.0000
16:10 21.3 11.3 53 334 0.8 2.5 1024.7 0.0000 0.0000
16:20 21 11.1 53 355 1.1 2.2 1024.8 0.0000 0.0000
16:30 20.8 10.9 53 339 0.8 3.1 1024.8 0.0000 0.0000
16:40 20.8 10.9 53 330 0.8 2.2 1024.7 0.0000 0.0000
16:50 21 11.1 53 327 0.6 2.2 1024.6 0.0000 0.0000
17:00 20.8 10.9 53 332 0.8 2.2 1024.6 0.0000 0.0000
17:11 20.7 10.5 52 329 0.8 2.8 1024.5 0.0000 0.0000
17:21 20.6 10.4 52 326 0.8 2.5 1024.5 0.0000 0.0000
17:30 20.6 10.4 52 330 0.8 3.1 1024.4 0.0000 0.0000
17:41 20.6 10.4 52 319 0.6 3.1 1024.4 0.0000 0.0000
17:51 20.5 10.3 52 337 0.8 3.1 1024.5 0.0000 0.0000
18:01 20.4 10.2 52 337 0.8 2.5 1024.6 0.0000 0.0000
18:11 20.4 10.2 52 335 0.6 1.7 1024.5 0.0000 0.0000
18:21 20.3 10.1 52 329 0.6 2.8 1024.5 0.0000 0.0000
18:32 20.2 10 52 333 0.6 1.9 1024.4 0.0000 0.0000
18:42 20.2 10 52 325 0.8 2.8 1024.4 0.0000 0.0000
18:52 20.1 9.9 52 348 0.8 1.7 1024.4 0.0000 0.0000
19:03 20 9.9 52 358 0.8 1.7 1024.5 0.0000 0.0000
19:13 19.9 9.8 52 319 0.6 2.2 1024.5 0.0000 0.0000
19:22 19.9 9.8 52 349 0.6 1.9 1024.5 0.0000 0.0000
19:32 19.7 9.6 52 325 0.6 1.7 1024.5 0.0000 0.0000
19:43 19.5 9.4 52 311 0.3 1.1 1024.4 0.0000 0.0000
19:52 19.4 9.3 52 270 0.3 0.8 1024.4 0.0000 0.0000
20:02 19.3 9.2 52 303 0.3 0.8 1024.4 0.0000 0.0000
20:13 19.3 9.2 52 315 0.6 1.1 1024.3 0.0000 0.0000
20:23 19.2 9.1 52 319 0.3 1.1 1024.3 0.0000 0.0000
20:33 19.1 9 52 309 0.3 0.6 1024.4 0.0000 0.0000
20:43 19.1 9 52 270 0.3 0.8 1024.4 0.0000 0.0000
20:53 18.9 8.8 52 270 0.3 0.6 1024.4 0.0000 0.0000
21:03 18.9 9.1 53 270 0.3 0.6 1024.4 0.0000 0.0000
21:13 18.9 9.1 53 307 0.3 0.6 1024.5 0.0000 0.0000
21:23 18.8 9 53 270 0.3 0.6 1024.5 0.0000 0.0000
21:33 18.6 8.8 53 270 0.3 0.6 1024.5 0.0000 0.0000
21:43 18.5 8.8 53 0 0.6 1024.7 0.0000 0.0000
21:53 18.5 8.8 53 270 0.3 0.6 1024.7 0.0000 0.0000
22:04 18.3 8.6 53 270 0.3 0.6 1024.7 0.0000 0.0000
22:13 18.2 8.7 54 270 0.3 0.6 1024.7 0.0000 0.0000
22:23 18 8.6 54 270 0.3 0.6 1024.7 0.0000 0.0000
22:34 17.8 8.4 54 270 0.3 0.6 1024.7 0.0000 0.0000
22:44 17.6 8.2 54 270 0.3 0.6 1024.6 0.0000 0.0000
22:54 17.4 8 54 270 0.3 0.6 1024.6 0.0000 0.0000
23:04 17.2 7.8 54 270 0.3 0.6 1024.6 0.0000 0.0000
23:14 16.9 7.5 54 270 0.3 0.6 1024.5 0.0000 0.0000
23:24 16.8 7.7 55 0 0.3 1024.4 0.0000 0.0000
23:34 16.5 7.4 55 0 0.3 1024.3 0.0000 0.0000
23:45 16.2 7.2 55 0 0.6 1024.3 0.0000 0.0000
23:54 16 7 55 0 0.6 1024.4 0.0000

DAY STATISTIC

2020-07-12
TEMPERATURE
AVERAGE
17.7
HIGH
22.8
12:08
LOW
11.2
05:35
PRESSURE
AVERAGE
1024.3
HIGH
1025.3
09:37
LOW
1022.7
00:17
DEWPOINT
AVERAGE
9.3
HIGH
14.4
12:08
LOW
4.4
05:35
HUMIDITY
AVERAGE
58
HIGH
65
06:55
LOW
52
17:11
WIND SPEED
AVERAGE
0.6
HIGH
1.9
12:28
WIND GUST
AVERAGE
1.6
HIGH
4.7
12:28
WIND DIRECTION
PREVAILING
NW
47.2%
N
16.9
NE
0.0
E
0.7
SE
0.7
S
0.0
SW
7.7
W
23.2
NW
47.2
PRECIPITATION
RAIN HOUR
0.0
RAIN DAY
0.0
TEMPERATURE (°C)
LOW
11.2
HIGH
22.8
AVERAGE
17.7
PRESSURE (hpa)
LOW
1022.7
HIGH
1025.3
AVERAGE
1024.3
DEVICE